createdAt,value
2018-12-16T00:01:53.129Z,24.07
2018-12-16T00:04:21.632Z,22.83
2018-12-16T00:06:50.045Z,22.30
2018-12-16T00:09:18.472Z,21.77
2018-12-16T00:11:46.914Z,22.30
2018-12-16T00:14:15.359Z,23.47
2018-12-16T00:16:43.754Z,22.90
2018-12-16T00:19:12.205Z,23.17
2018-12-16T00:21:40.645Z,22.97
2018-12-16T00:24:09.148Z,22.30
2018-12-16T00:26:48.941Z,22.83
2018-12-16T00:29:17.382Z,23.13
2018-12-16T00:31:45.895Z,22.47
2018-12-16T00:34:14.502Z,22.30
2018-12-16T00:36:43.112Z,23.27
2018-12-16T00:39:11.573Z,23.27
2018-12-16T00:41:40.028Z,23.30
2018-12-16T00:44:08.470Z,22.93
2018-12-16T00:46:37.298Z,22.93
2018-12-16T00:49:05.905Z,22.13
2018-12-16T00:51:34.319Z,23.80
2018-12-16T00:54:02.809Z,22.57
2018-12-16T00:56:31.316Z,23.60
2018-12-16T00:58:59.759Z,22.03
2018-12-16T01:01:28.205Z,22.37
2018-12-16T01:03:56.678Z,22.10
2018-12-16T01:06:25.146Z,22.70
2018-12-16T01:08:53.615Z,22.67
2018-12-16T01:11:22.117Z,22.73
2018-12-16T01:13:50.537Z,23.10
2018-12-16T01:16:18.984Z,22.10
2018-12-16T01:18:47.393Z,22.17
2018-12-16T01:21:16.083Z,23.10
2018-12-16T01:23:44.581Z,22.30
2018-12-16T01:26:13.073Z,21.37
2018-12-16T01:28:41.911Z,21.63
2018-12-16T01:31:10.324Z,21.30
2018-12-16T01:33:38.752Z,21.60
2018-12-16T01:36:07.196Z,21.30
2018-12-16T01:38:35.618Z,20.23
2018-12-16T01:41:04.072Z,21.13
2018-12-16T01:43:32.481Z,20.53
2018-12-16T01:46:00.950Z,21.13
2018-12-16T01:48:29.535Z,20.83
2018-12-16T01:50:57.987Z,20.23
2018-12-16T01:53:26.393Z,19.90
2018-12-16T01:55:54.905Z,21.13
2018-12-16T01:58:23.345Z,21.93
2018-12-16T02:00:51.797Z,23.37
2018-12-16T02:03:20.238Z,22.57
2018-12-16T02:05:48.667Z,23.10
2018-12-16T02:08:17.210Z,23.30
2018-12-16T02:10:46.061Z,23.83
2018-12-16T02:13:14.574Z,25.10
2018-12-16T02:15:43.024Z,23.70
2018-12-16T02:18:11.440Z,22.63
2018-12-16T02:20:39.854Z,24.60
2018-12-16T02:23:08.300Z,24.63
2018-12-16T02:25:36.748Z,25.47
2018-12-16T02:28:05.176Z,25.20
2018-12-16T02:30:33.592Z,25.93
2018-12-16T02:33:02.057Z,25.60
2018-12-16T02:35:30.501Z,24.90
2018-12-16T02:37:59.046Z,27.53
2018-12-16T02:40:27.583Z,25.93
2018-12-16T02:42:56.049Z,26.47
2018-12-16T02:45:24.473Z,27.43
2018-12-16T02:47:52.896Z,28.53
2018-12-16T02:50:21.388Z,28.70
2018-12-16T02:52:50.269Z,26.93
2018-12-16T02:55:18.709Z,27.17
2018-12-16T02:57:47.142Z,27.13
2018-12-16T03:00:15.601Z,29.13
2018-12-16T03:02:44.053Z,28.40
2018-12-16T03:05:12.494Z,29.23
2018-12-16T03:07:40.939Z,29.80
2018-12-16T03:10:09.627Z,28.77
2018-12-16T03:12:38.023Z,28.33
2018-12-16T03:15:06.692Z,28.73
2018-12-16T03:17:35.239Z,30.83
2018-12-16T03:20:03.910Z,31.93
2018-12-16T03:22:32.389Z,31.27
2018-12-16T03:25:00.856Z,31.10
2018-12-16T03:27:29.281Z,31.10
2018-12-16T03:29:57.733Z,31.13
2018-12-16T03:32:26.176Z,28.47
2018-12-16T03:34:54.781Z,32.37
2018-12-16T03:37:23.296Z,30.13
2018-12-16T03:39:51.754Z,32.13
2018-12-16T03:42:20.245Z,30.53
2018-12-16T03:44:48.665Z,29.20
2018-12-16T03:47:17.133Z,29.43
2018-12-16T03:49:45.567Z,29.17
2018-12-16T03:52:14.131Z,27.43
2018-12-16T03:54:42.545Z,26.93
2018-12-16T03:57:10.995Z,27.30
2018-12-16T03:59:39.446Z,28.63
2018-12-16T04:02:07.882Z,28.87
2018-12-16T04:04:36.423Z,29.30
2018-12-16T04:07:04.900Z,27.73
2018-12-16T04:09:33.408Z,27.90
2018-12-16T04:12:01.898Z,28.57
2018-12-16T04:14:30.346Z,26.87
2018-12-16T04:16:58.823Z,27.57
2018-12-16T04:19:27.333Z,28.67
2018-12-16T04:21:55.752Z,28.27
2018-12-16T04:24:24.216Z,27.53
2018-12-16T04:26:52.690Z,27.83
2018-12-16T04:29:21.122Z,27.70
2018-12-16T04:31:49.610Z,26.13
2018-12-16T04:34:18.032Z,28.10
2018-12-16T04:36:47.758Z,27.03
2018-12-16T04:39:16.478Z,28.57
2018-12-16T04:41:44.969Z,27.63
2018-12-16T04:44:13.480Z,26.90
2018-12-16T04:46:41.965Z,26.57
2018-12-16T04:49:10.397Z,26.93
2018-12-16T04:51:38.850Z,27.70
2018-12-16T04:54:07.278Z,27.50
2018-12-16T04:56:35.732Z,27.23
2018-12-16T04:59:04.313Z,25.77
2018-12-16T05:01:32.845Z,24.87
2018-12-16T05:04:01.309Z,26.67
2018-12-16T05:06:29.744Z,24.97
2018-12-16T05:08:58.212Z,25.93
2018-12-16T05:11:26.666Z,25.67
2018-12-16T05:13:55.193Z,25.53
2018-12-16T05:16:23.640Z,27.40
2018-12-16T05:18:52.084Z,27.10
2018-12-16T05:21:20.714Z,27.13
2018-12-16T05:23:49.154Z,28.70
2018-12-16T05:26:17.598Z,26.50
2018-12-16T05:28:46.049Z,26.07
2018-12-16T05:31:14.474Z,25.93
2018-12-16T05:33:43.026Z,25.63
2018-12-16T05:36:11.466Z,26.37
2018-12-16T05:38:39.880Z,26.47
2018-12-16T05:41:08.373Z,25.67
2018-12-16T05:43:36.786Z,25.97
2018-12-16T05:46:05.242Z,24.90
2018-12-16T05:48:33.656Z,26.17
2018-12-16T05:51:02.145Z,26.50
2018-12-16T05:53:30.596Z,25.10
2018-12-16T05:55:59.733Z,25.43
2018-12-16T05:58:28.136Z,25.97
2018-12-16T06:00:56.566Z,25.47
2018-12-16T06:03:25.089Z,22.83
2018-12-16T06:05:53.537Z,24.03
2018-12-16T06:08:22.034Z,25.13
2018-12-16T06:10:50.475Z,25.70
2018-12-16T06:13:18.933Z,25.57
2018-12-16T06:15:47.365Z,24.30
2018-12-16T06:18:15.943Z,25.50
2018-12-16T06:20:44.402Z,26.27
2018-12-16T06:23:12.937Z,23.73
2018-12-16T06:25:41.376Z,25.23
2018-12-16T06:28:09.938Z,25.70
2018-12-16T06:30:38.938Z,25.13
2018-12-16T06:33:07.423Z,25.53
2018-12-16T06:35:35.874Z,25.50
2018-12-16T06:38:04.316Z,26.50
2018-12-16T06:40:32.725Z,25.67
2018-12-16T06:43:01.151Z,25.37
2018-12-16T06:45:29.568Z,24.90
2018-12-16T06:47:58.065Z,25.57
2018-12-16T06:50:26.511Z,25.03
2018-12-16T06:52:54.972Z,24.93
2018-12-16T06:55:23.442Z,24.87
2018-12-16T06:57:52.068Z,24.87
2018-12-16T07:00:20.573Z,24.40
2018-12-16T07:02:53.233Z,25.00
2018-12-16T07:05:22.005Z,25.60
2018-12-16T07:07:50.590Z,25.00
2018-12-16T07:10:19.362Z,26.07
2018-12-16T07:12:47.902Z,26.40
2018-12-16T07:15:16.449Z,27.13
2018-12-16T07:17:44.883Z,24.90
2018-12-16T07:20:13.520Z,26.03
2018-12-16T07:22:42.048Z,26.37
2018-12-16T07:25:10.537Z,23.63
2018-12-16T07:27:39.862Z,25.70
2018-12-16T07:30:08.857Z,25.20
2018-12-16T07:32:37.423Z,26.73
2018-12-16T07:35:06.359Z,25.57
2018-12-16T07:37:34.793Z,24.57
2018-12-16T07:40:03.602Z,25.87
2018-12-16T07:42:32.096Z,24.93
2018-12-16T07:45:00.556Z,25.67
2018-12-16T07:47:29.072Z,24.33
2018-12-16T07:49:57.507Z,25.23
2018-12-16T07:52:25.912Z,24.70
2018-12-16T07:54:54.516Z,24.73
2018-12-16T07:57:22.988Z,24.30
2018-12-16T07:59:51.413Z,26.20
2018-12-16T08:02:19.917Z,25.00
2018-12-16T08:04:49.183Z,24.47
2018-12-16T08:07:18.012Z,25.53
2018-12-16T08:09:46.449Z,24.43
2018-12-16T08:12:14.973Z,25.87
2018-12-16T08:14:43.553Z,25.47
2018-12-16T08:17:12.012Z,24.57
2018-12-16T08:19:40.428Z,25.30
2018-12-16T08:22:08.996Z,25.60
2018-12-16T08:24:37.430Z,25.17
2018-12-16T08:27:05.881Z,24.67
2018-12-16T08:29:34.561Z,25.20
2018-12-16T08:32:03.117Z,24.47
2018-12-16T08:34:31.564Z,23.80
2018-12-16T08:37:00.037Z,24.37
2018-12-16T08:39:28.516Z,25.77
2018-12-16T08:41:57.080Z,25.93
2018-12-16T08:44:25.713Z,25.53
2018-12-16T08:46:54.141Z,25.00
2018-12-16T08:49:22.618Z,24.67
2018-12-16T08:51:51.027Z,26.53
2018-12-16T08:54:19.640Z,25.73
2018-12-16T08:56:48.080Z,25.67
2018-12-16T08:59:16.656Z,25.00
2018-12-16T09:01:45.097Z,24.67
2018-12-16T09:04:14.233Z,25.87
2018-12-16T09:06:43.375Z,24.70
2018-12-16T09:09:12.277Z,24.77
2018-12-16T09:11:40.796Z,26.27
2018-12-16T09:14:09.286Z,24.90
2018-12-16T09:16:37.736Z,27.03
2018-12-16T09:19:06.241Z,25.03
2018-12-16T09:21:34.685Z,26.13
2018-12-16T09:24:03.158Z,24.10
2018-12-16T09:26:31.650Z,24.57
2018-12-16T09:29:00.159Z,24.07
2018-12-16T09:31:28.699Z,25.03
2018-12-16T09:33:57.227Z,26.30
2018-12-16T09:36:25.732Z,24.10
2018-12-16T09:38:54.160Z,25.23
2018-12-16T09:41:22.644Z,25.50
2018-12-16T09:43:51.102Z,24.50
2018-12-16T09:46:19.577Z,25.00
2018-12-16T09:48:48.012Z,25.67
2018-12-16T09:51:16.710Z,26.03
2018-12-16T09:53:45.237Z,24.70
2018-12-16T09:56:13.741Z,24.70
2018-12-16T09:58:42.172Z,24.07
2018-12-16T10:01:10.713Z,26.10
2018-12-16T10:03:39.164Z,24.40
2018-12-16T10:06:07.697Z,23.70
2018-12-16T10:08:36.201Z,22.50
2018-12-16T10:11:04.682Z,24.37
2018-12-16T10:13:34.315Z,23.03
2018-12-16T10:16:02.832Z,23.43
2018-12-16T10:18:31.273Z,24.10
2018-12-16T10:20:59.750Z,23.87
2018-12-16T10:23:28.180Z,24.33
2018-12-16T10:25:56.647Z,25.33
2018-12-16T10:28:25.215Z,25.47
2018-12-16T10:30:53.722Z,23.47
2018-12-16T10:33:22.316Z,25.03
2018-12-16T10:35:50.898Z,25.57
2018-12-16T10:38:19.535Z,23.20
2018-12-16T10:40:48.022Z,22.87
2018-12-16T10:43:17.916Z,24.43
2018-12-16T10:45:46.432Z,23.90
2018-12-16T10:48:15.282Z,26.23
2018-12-16T10:50:44.154Z,24.67
2018-12-16T10:53:12.715Z,24.33
2018-12-16T10:55:41.197Z,23.27
2018-12-16T10:58:09.722Z,23.03
2018-12-16T11:00:46.418Z,23.53
2018-12-16T11:03:14.941Z,23.60
2018-12-16T11:05:43.468Z,24.90
2018-12-16T11:08:12.041Z,23.23
2018-12-16T11:10:40.660Z,22.57
2018-12-16T11:13:09.554Z,23.57
2018-12-16T11:15:38.074Z,24.10
2018-12-16T11:18:06.571Z,24.37
2018-12-16T11:20:35.053Z,23.67
2018-12-16T11:23:03.516Z,23.97
2018-12-16T11:25:32.806Z,23.07
2018-12-16T11:28:01.287Z,24.30
2018-12-16T11:30:29.790Z,24.40
2018-12-16T11:32:58.686Z,25.23
2018-12-16T11:35:27.241Z,24.07
2018-12-16T11:37:55.753Z,22.40
2018-12-16T11:40:24.214Z,23.73
2018-12-16T11:42:52.870Z,25.27
2018-12-16T11:45:21.327Z,26.37
2018-12-16T11:47:50.018Z,25.83
2018-12-16T11:50:18.554Z,25.00
2018-12-16T11:52:47.079Z,25.50
2018-12-16T11:55:15.603Z,25.17
2018-12-16T11:57:44.362Z,25.43
2018-12-16T12:00:13.091Z,25.73
2018-12-16T12:02:41.602Z,25.80
2018-12-16T12:05:10.192Z,23.30
2018-12-16T12:07:38.646Z,24.00
2018-12-16T12:10:08.261Z,24.10
2018-12-16T12:12:36.793Z,23.70
2018-12-16T12:15:05.588Z,23.37
2018-12-16T12:17:34.519Z,22.20
2018-12-16T12:20:03.061Z,22.93
2018-12-16T12:22:31.658Z,23.90
2018-12-16T12:25:00.233Z,24.63
2018-12-16T12:27:29.030Z,23.60
2018-12-16T12:29:57.581Z,24.03
2018-12-16T12:32:26.147Z,24.40
2018-12-16T12:34:54.651Z,23.90
2018-12-16T12:37:23.134Z,25.33
2018-12-16T12:39:51.673Z,25.27
2018-12-16T12:42:20.151Z,25.70
2018-12-16T12:44:48.627Z,25.60
2018-12-16T12:47:17.174Z,25.20
2018-12-16T12:49:46.792Z,25.70
2018-12-16T12:52:15.263Z,24.63
2018-12-16T12:54:43.805Z,24.97
2018-12-16T12:57:12.891Z,24.30
2018-12-16T12:59:41.602Z,23.37
2018-12-16T13:02:10.636Z,24.40
2018-12-16T13:04:39.221Z,22.93
2018-12-16T13:07:07.720Z,21.83
2018-12-16T13:09:36.210Z,23.43
2018-12-16T13:12:04.739Z,24.53
2018-12-16T13:14:33.243Z,25.80
2018-12-16T13:17:01.677Z,26.07
2018-12-16T13:19:30.396Z,26.43
2018-12-16T13:22:00.384Z,26.27
2018-12-16T13:24:28.909Z,25.73
2018-12-16T13:26:57.708Z,24.37
2018-12-16T13:29:26.308Z,24.13
2018-12-16T13:31:55.077Z,24.67
2018-12-16T13:34:23.661Z,25.37
2018-12-16T13:36:52.181Z,26.67
2018-12-16T13:39:20.804Z,25.97
2018-12-16T13:41:49.323Z,24.37
2018-12-16T13:44:18.062Z,23.20
2018-12-16T13:46:46.622Z,27.00
2018-12-16T13:49:15.125Z,25.87
2018-12-16T13:51:43.654Z,24.67
2018-12-16T13:54:12.189Z,24.63
2018-12-16T13:56:40.697Z,23.77
2018-12-16T13:59:09.205Z,24.57
2018-12-16T14:01:38.511Z,25.03
2018-12-16T14:04:07.106Z,25.67
2018-12-16T14:06:35.606Z,24.63
2018-12-16T14:09:06.711Z,21.77
2018-12-16T14:11:35.386Z,22.67
2018-12-16T14:14:04.216Z,23.07
2018-12-16T14:16:32.730Z,22.67
2018-12-16T14:19:01.935Z,23.70
2018-12-16T14:21:30.561Z,24.53
2018-12-16T14:23:59.228Z,22.43
2018-12-16T14:26:27.800Z,23.77
2018-12-16T14:28:56.272Z,24.20
2018-12-16T14:31:24.721Z,23.67
2018-12-16T14:33:53.220Z,22.53
2018-12-16T14:36:21.764Z,22.53
2018-12-16T14:38:50.311Z,21.90
2018-12-16T14:41:18.826Z,22.23
2018-12-16T14:43:47.484Z,21.10
2018-12-16T14:46:15.998Z,21.93
2018-12-16T14:48:45.587Z,21.60
2018-12-16T14:51:14.200Z,21.83
2018-12-16T14:53:42.717Z,22.70
2018-12-16T14:56:12.083Z,20.47
2018-12-16T14:58:40.626Z,22.23
2018-12-16T15:01:09.378Z,21.27
2018-12-16T15:03:37.860Z,21.70
2018-12-16T15:06:06.304Z,21.50
2018-12-16T15:08:35.037Z,20.87
2018-12-16T15:11:03.802Z,22.17
2018-12-16T15:13:32.251Z,22.67
2018-12-16T15:16:01.017Z,23.60
2018-12-16T15:18:29.489Z,23.47
2018-12-16T15:20:57.974Z,22.50
2018-12-16T15:23:26.512Z,23.60
2018-12-16T15:26:01.859Z,22.40
2018-12-16T15:28:25.660Z,22.20
2018-12-16T15:30:54.162Z,24.37
2018-12-16T15:33:22.628Z,24.47
2018-12-16T15:35:52.017Z,23.10
2018-12-16T15:38:20.501Z,22.40
2018-12-16T15:40:49.126Z,22.80
2018-12-16T15:43:17.735Z,23.43
2018-12-16T15:45:46.448Z,22.70
2018-12-16T15:48:15.110Z,24.00
2018-12-16T15:50:43.613Z,22.50
2018-12-16T15:53:12.144Z,25.30
2018-12-16T15:55:40.934Z,25.83
2018-12-16T15:58:09.456Z,25.27
2018-12-16T16:00:38.093Z,25.43
2018-12-16T16:03:06.659Z,23.90
2018-12-16T16:05:35.753Z,25.97
2018-12-16T16:08:04.569Z,24.30
2018-12-16T16:10:33.098Z,25.70
2018-12-16T16:13:01.555Z,24.77
2018-12-16T16:15:30.067Z,24.83
2018-12-16T16:17:58.610Z,22.90
2018-12-16T16:20:27.137Z,25.33
2018-12-16T16:22:55.644Z,21.13
2018-12-16T16:25:24.098Z,19.37
2018-12-16T16:27:52.674Z,21.33
2018-12-16T16:30:21.502Z,19.47
2018-12-16T16:32:50.231Z,19.33
2018-12-16T16:35:18.907Z,20.50
2018-12-16T16:37:47.619Z,19.23
2018-12-16T16:40:16.275Z,19.43
2018-12-16T16:42:44.838Z,19.77
2018-12-16T16:45:13.395Z,24.10
2018-12-16T16:47:42.096Z,20.67
2018-12-16T16:50:10.701Z,19.20
2018-12-16T16:52:39.226Z,19.27
2018-12-16T16:55:08.066Z,19.20
2018-12-16T16:57:36.601Z,18.17
2018-12-16T17:00:07.608Z,18.63
2018-12-16T17:02:36.353Z,19.90
2018-12-16T17:05:05.713Z,19.27
2018-12-16T17:07:34.369Z,19.37
2018-12-16T17:10:03.259Z,21.17
2018-12-16T17:12:31.965Z,19.97
2018-12-16T17:15:00.527Z,22.07
2018-12-16T17:17:29.684Z,20.43
2018-12-16T17:19:58.348Z,21.60
2018-12-16T17:22:26.980Z,21.20
2018-12-16T17:24:55.459Z,23.00
2018-12-16T17:27:24.058Z,22.87
2018-12-16T17:29:52.646Z,23.83
2018-12-16T17:32:21.074Z,24.23
2018-12-16T17:34:49.680Z,23.67
2018-12-16T17:37:18.349Z,24.63
2018-12-16T17:39:46.966Z,22.83
2018-12-16T17:42:15.463Z,23.70
2018-12-16T17:47:28.638Z,23.17
2018-12-16T17:49:57.265Z,22.50
2018-12-16T17:52:26.859Z,20.07
2018-12-16T17:54:55.535Z,20.07
2018-12-16T17:57:24.585Z,18.60
2018-12-16T17:59:53.159Z,19.00
2018-12-16T18:02:22.341Z,18.03
2018-12-16T18:04:51.804Z,16.97
2018-12-16T18:07:20.413Z,17.03
2018-12-16T18:09:49.027Z,15.80
2018-12-16T18:12:17.792Z,15.73
2018-12-16T18:14:46.640Z,15.53
2018-12-16T18:17:15.288Z,15.97
2018-12-16T18:19:44.383Z,15.50
2018-12-16T18:22:14.179Z,15.10
2018-12-16T18:24:43.584Z,14.77
2018-12-16T18:27:12.517Z,15.37
2018-12-16T18:29:41.975Z,15.63
2018-12-16T18:32:10.553Z,16.10
2018-12-16T18:34:39.359Z,16.53
2018-12-16T18:37:08.023Z,16.90
2018-12-16T18:39:38.115Z,16.20
2018-12-16T18:42:07.051Z,16.50
2018-12-16T18:44:36.662Z,18.80
2018-12-16T18:47:05.271Z,19.87
2018-12-16T18:49:36.141Z,19.93
2018-12-16T18:52:04.780Z,21.60
2018-12-16T18:54:33.521Z,21.33
2018-12-16T18:57:07.115Z,21.30
2018-12-16T18:59:33.370Z,22.53
2018-12-16T19:02:02.406Z,22.23
2018-12-16T19:04:31.056Z,22.03
2018-12-16T19:07:00.328Z,21.60
2018-12-16T19:09:29.036Z,21.53
2018-12-16T19:11:57.629Z,22.57
2018-12-16T19:14:26.509Z,23.33
2018-12-16T19:16:55.386Z,21.20
2018-12-16T19:19:24.398Z,22.97
2018-12-16T19:21:53.336Z,22.57
2018-12-16T19:24:22.093Z,21.50
2018-12-16T19:26:57.978Z,22.90
2018-12-16T19:29:23.500Z,23.10
2018-12-16T19:31:52.912Z,22.57
2018-12-16T19:34:22.457Z,22.50
2018-12-16T19:36:51.774Z,22.73
2018-12-16T19:39:21.038Z,22.87
2018-12-16T19:41:49.641Z,23.23
2018-12-16T19:44:18.366Z,22.90
2018-12-16T19:46:47.735Z,23.83
2018-12-16T19:49:16.379Z,22.33
2018-12-16T19:51:45.503Z,23.97
2018-12-16T19:54:14.195Z,21.00
2018-12-16T19:56:42.945Z,22.80
2018-12-16T19:59:11.652Z,22.07
2018-12-16T20:01:40.341Z,21.37
2018-12-16T20:04:14.306Z,21.33
2018-12-16T20:06:46.980Z,20.23
2018-12-16T20:09:16.082Z,21.10
2018-12-16T20:11:46.084Z,22.07
2018-12-16T20:14:14.763Z,20.87
2018-12-16T20:16:43.380Z,19.07
2018-12-16T20:19:12.079Z,19.03
2018-12-16T20:21:41.052Z,18.80
2018-12-16T20:24:09.632Z,21.70
2018-12-16T20:26:42.443Z,20.73
2018-12-16T20:29:11.052Z,21.13
2018-12-16T20:31:39.642Z,20.87
2018-12-16T20:34:08.250Z,21.43
2018-12-16T20:36:37.292Z,22.80
2018-12-16T20:39:07.977Z,21.33
2018-12-16T20:41:36.910Z,22.30
2018-12-16T20:44:05.851Z,22.60
2018-12-16T20:46:34.770Z,21.10
2018-12-16T20:49:03.471Z,22.17
2018-12-16T20:51:32.078Z,21.23
2018-12-16T20:54:01.214Z,21.57
2018-12-16T20:56:29.811Z,19.83
2018-12-16T20:58:59.469Z,20.87
2018-12-16T21:01:28.136Z,21.23
2018-12-16T21:03:58.514Z,21.50
2018-12-16T21:06:27.129Z,20.07
2018-12-16T21:08:55.744Z,20.97
2018-12-16T21:11:29.632Z,21.40
2018-12-16T21:14:20.239Z,20.03
2018-12-16T21:16:55.251Z,20.37
2018-12-16T21:19:24.048Z,20.67
2018-12-16T21:21:52.696Z,19.97
2018-12-16T21:24:21.898Z,20.67
2018-12-16T21:26:52.148Z,20.83
2018-12-16T21:29:20.717Z,22.53
2018-12-16T21:31:49.448Z,22.23
2018-12-16T21:34:18.129Z,21.57
2018-12-16T21:36:46.745Z,22.00
2018-12-16T21:39:15.730Z,20.00
2018-12-16T21:41:44.423Z,21.07
2018-12-16T21:44:21.121Z,20.23
2018-12-16T21:46:50.104Z,20.57
2018-12-16T21:49:18.854Z,19.43
2018-12-16T21:51:47.557Z,19.70
2018-12-16T21:54:16.126Z,19.30
2018-12-16T21:56:44.692Z,19.90
2018-12-16T21:59:13.432Z,19.40
2018-12-16T22:01:42.065Z,19.13
2018-12-16T22:04:10.646Z,18.87
2018-12-16T22:06:39.782Z,19.00
2018-12-16T22:09:08.867Z,18.70
2018-12-16T22:14:27.416Z,19.10
2018-12-16T22:16:56.541Z,18.40
2018-12-16T22:19:25.085Z,18.93
2018-12-16T22:21:53.709Z,19.00
2018-12-16T22:24:22.340Z,17.20
2018-12-16T22:26:51.005Z,18.53
2018-12-16T22:29:19.573Z,18.37
2018-12-16T22:31:48.503Z,16.90
2018-12-16T22:34:17.858Z,16.50
2018-12-16T22:36:46.450Z,17.37
2018-12-16T22:39:15.147Z,17.57
2018-12-16T22:41:43.753Z,17.60
2018-12-16T22:44:12.795Z,17.23
2018-12-16T22:46:41.792Z,17.67
2018-12-16T22:49:10.665Z,18.13
2018-12-16T22:51:39.649Z,18.13
2018-12-16T22:54:08.961Z,18.30
2018-12-16T22:56:37.537Z,18.03
2018-12-16T22:59:06.128Z,17.77
2018-12-16T23:01:34.666Z,17.57
2018-12-16T23:04:03.231Z,17.67
2018-12-16T23:06:31.829Z,18.63
2018-12-16T23:09:00.398Z,17.93
2018-12-16T23:11:29.661Z,17.77
2018-12-16T23:13:58.252Z,17.90
2018-12-16T23:16:26.926Z,18.33
2018-12-16T23:18:55.493Z,17.47
2018-12-16T23:21:24.038Z,16.97
2018-12-16T23:23:52.629Z,17.43
2018-12-16T23:26:21.157Z,18.23
2018-12-16T23:28:50.264Z,17.53
2018-12-16T23:31:18.961Z,19.30
2018-12-16T23:33:47.945Z,16.20
2018-12-16T23:36:16.431Z,18.47
2018-12-16T23:38:44.943Z,17.70
2018-12-16T23:41:13.514Z,17.70
2018-12-16T23:43:42.089Z,17.30
2018-12-16T23:46:11.965Z,19.90
2018-12-16T23:48:40.574Z,19.63
2018-12-16T23:51:09.136Z,20.37
2018-12-16T23:53:37.682Z,18.20
2018-12-16T23:56:06.490Z,17.53
2018-12-16T23:58:35.038Z,17.30
